sensor_id;sensor_type;location;lat;lon;timestamp;P1;durP1;ratioP1;P2;durP2;ratioP2
10920;SDS011;5513;50.580;8.818;2022-09-19T00:01:57;6.20;;;3.73;;
10920;SDS011;5513;50.580;8.818;2022-09-19T00:04:27;6.97;;;4.23;;
10920;SDS011;5513;50.580;8.818;2022-09-19T00:06:57;7.73;;;4.20;;
10920;SDS011;5513;50.580;8.818;2022-09-19T00:09:29;6.70;;;3.90;;
10920;SDS011;5513;50.580;8.818;2022-09-19T00:11:59;7.57;;;4.17;;
10920;SDS011;5513;50.580;8.818;2022-09-19T00:14:29;7.63;;;4.37;;
10920;SDS011;5513;50.580;8.818;2022-09-19T00:17:01;7.47;;;4.00;;
10920;SDS011;5513;50.580;8.818;2022-09-19T00:19:34;9.17;;;4.63;;
10920;SDS011;5513;50.580;8.818;2022-09-19T00:22:06;7.57;;;4.10;;
10920;SDS011;5513;50.580;8.818;2022-09-19T00:24:37;9.37;;;4.63;;
10920;SDS011;5513;50.580;8.818;2022-09-19T00:27:16;8.63;;;4.67;;
10920;SDS011;5513;50.580;8.818;2022-09-19T00:29:46;8.77;;;4.70;;
10920;SDS011;5513;50.580;8.818;2022-09-19T00:32:16;10.07;;;5.27;;
10920;SDS011;5513;50.580;8.818;2022-09-19T00:34:45;12.40;;;5.50;;
10920;SDS011;5513;50.580;8.818;2022-09-19T00:37:16;10.13;;;5.53;;
10920;SDS011;5513;50.580;8.818;2022-09-19T00:39:48;8.13;;;5.33;;
10920;SDS011;5513;50.580;8.818;2022-09-19T00:42:17;8.40;;;5.13;;
10920;SDS011;5513;50.580;8.818;2022-09-19T00:44:50;7.40;;;5.43;;
10920;SDS011;5513;50.580;8.818;2022-09-19T00:47:31;13.37;;;5.27;;
10920;SDS011;5513;50.580;8.818;2022-09-19T00:50:10;7.63;;;5.77;;
10920;SDS011;5513;50.580;8.818;2022-09-19T00:52:48;8.03;;;5.50;;
10920;SDS011;5513;50.580;8.818;2022-09-19T00:55:22;9.67;;;5.43;;
10920;SDS011;5513;50.580;8.818;2022-09-19T00:57:57;10.27;;;6.10;;
10920;SDS011;5513;50.580;8.818;2022-09-19T01:00:28;10.13;;;5.90;;
10920;SDS011;5513;50.580;8.818;2022-09-19T01:02:57;9.80;;;5.70;;
10920;SDS011;5513;50.580;8.818;2022-09-19T01:05:27;9.30;;;5.53;;
10920;SDS011;5513;50.580;8.818;2022-09-19T01:08:08;9.80;;;5.53;;
10920;SDS011;5513;50.580;8.818;2022-09-19T01:10:56;11.50;;;5.90;;
10920;SDS011;5513;50.580;8.818;2022-09-19T01:13:41;9.93;;;5.90;;
10920;SDS011;5513;50.580;8.818;2022-09-19T01:16:22;11.33;;;5.50;;
10920;SDS011;5513;50.580;8.818;2022-09-19T01:19:03;9.73;;;5.63;;
10920;SDS011;5513;50.580;8.818;2022-09-19T01:21:47;12.43;;;5.90;;
10920;SDS011;5513;50.580;8.818;2022-09-19T01:27:36;7.90;;;5.77;;
10920;SDS011;5513;50.580;8.818;2022-09-19T01:30:33;8.13;;;5.73;;
10920;SDS011;5513;50.580;8.818;2022-09-19T01:33:06;11.53;;;6.40;;
10920;SDS011;5513;50.580;8.818;2022-09-19T01:35:45;8.90;;;5.80;;
10920;SDS011;5513;50.580;8.818;2022-09-19T01:38:20;12.30;;;6.83;;
10920;SDS011;5513;50.580;8.818;2022-09-19T01:40:52;10.23;;;5.70;;
10920;SDS011;5513;50.580;8.818;2022-09-19T01:43:23;13.53;;;6.47;;
10920;SDS011;5513;50.580;8.818;2022-09-19T01:45:52;12.17;;;5.93;;
10920;SDS011;5513;50.580;8.818;2022-09-19T01:48:31;11.13;;;6.30;;
10920;SDS011;5513;50.580;8.818;2022-09-19T01:51:11;9.30;;;5.27;;
10920;SDS011;5513;50.580;8.818;2022-09-19T01:53:57;11.83;;;6.17;;
10920;SDS011;5513;50.580;8.818;2022-09-19T01:56:38;13.47;;;5.70;;
10920;SDS011;5513;50.580;8.818;2022-09-19T01:59:20;12.13;;;5.90;;
10920;SDS011;5513;50.580;8.818;2022-09-19T02:02:09;9.67;;;6.13;;
10920;SDS011;5513;50.580;8.818;2022-09-19T02:04:45;10.90;;;6.00;;
10920;SDS011;5513;50.580;8.818;2022-09-19T02:07:18;13.20;;;6.37;;
10920;SDS011;5513;50.580;8.818;2022-09-19T02:09:55;9.33;;;5.20;;
10920;SDS011;5513;50.580;8.818;2022-09-19T02:12:29;11.93;;;6.90;;
10920;SDS011;5513;50.580;8.818;2022-09-19T02:15:02;12.23;;;6.07;;
10920;SDS011;5513;50.580;8.818;2022-09-19T02:17:34;10.03;;;5.37;;
10920;SDS011;5513;50.580;8.818;2022-09-19T02:20:12;10.30;;;5.67;;
10920;SDS011;5513;50.580;8.818;2022-09-19T02:22:45;10.13;;;5.10;;
10920;SDS011;5513;50.580;8.818;2022-09-19T02:25:19;11.07;;;5.70;;
10920;SDS011;5513;50.580;8.818;2022-09-19T02:27:52;13.33;;;5.90;;
10920;SDS011;5513;50.580;8.818;2022-09-19T02:30:27;9.83;;;5.60;;
10920;SDS011;5513;50.580;8.818;2022-09-19T02:32:59;10.23;;;5.37;;
10920;SDS011;5513;50.580;8.818;2022-09-19T02:35:35;9.87;;;5.87;;
10920;SDS011;5513;50.580;8.818;2022-09-19T02:38:11;8.10;;;6.03;;
10920;SDS011;5513;50.580;8.818;2022-09-19T02:40:50;9.63;;;5.70;;
10920;SDS011;5513;50.580;8.818;2022-09-19T02:43:26;9.87;;;5.80;;
10920;SDS011;5513;50.580;8.818;2022-09-19T02:46:05;9.47;;;5.97;;
10920;SDS011;5513;50.580;8.818;2022-09-19T02:48:39;8.63;;;6.13;;
10920;SDS011;5513;50.580;8.818;2022-09-19T02:51:17;14.60;;;6.30;;
10920;SDS011;5513;50.580;8.818;2022-09-19T02:53:52;12.03;;;5.70;;
10920;SDS011;5513;50.580;8.818;2022-09-19T02:56:25;14.50;;;6.57;;
10920;SDS011;5513;50.580;8.818;2022-09-19T02:59:02;11.60;;;6.40;;
10920;SDS011;5513;50.580;8.818;2022-09-19T03:01:35;12.30;;;7.00;;
10920;SDS011;5513;50.580;8.818;2022-09-19T03:04:08;10.10;;;6.30;;
10920;SDS011;5513;50.580;8.818;2022-09-19T03:06:44;12.23;;;6.90;;
10920;SDS011;5513;50.580;8.818;2022-09-19T03:09:21;10.20;;;6.67;;
10920;SDS011;5513;50.580;8.818;2022-09-19T03:11:54;13.60;;;6.50;;
10920;SDS011;5513;50.580;8.818;2022-09-19T03:14:27;12.20;;;6.67;;
10920;SDS011;5513;50.580;8.818;2022-09-19T03:17:00;14.07;;;6.77;;
10920;SDS011;5513;50.580;8.818;2022-09-19T03:19:30;14.43;;;7.23;;
10920;SDS011;5513;50.580;8.818;2022-09-19T03:21:59;13.30;;;7.33;;
10920;SDS011;5513;50.580;8.818;2022-09-19T03:24:27;11.00;;;6.43;;
10920;SDS011;5513;50.580;8.818;2022-09-19T03:26:56;10.27;;;6.23;;
10920;SDS011;5513;50.580;8.818;2022-09-19T03:29:25;15.67;;;7.10;;
10920;SDS011;5513;50.580;8.818;2022-09-19T03:31:55;12.30;;;6.93;;
10920;SDS011;5513;50.580;8.818;2022-09-19T03:34:26;16.37;;;7.10;;
10920;SDS011;5513;50.580;8.818;2022-09-19T03:36:59;15.13;;;7.47;;
10920;SDS011;5513;50.580;8.818;2022-09-19T03:39:27;13.10;;;7.37;;
10920;SDS011;5513;50.580;8.818;2022-09-19T03:41:58;15.77;;;7.27;;
10920;SDS011;5513;50.580;8.818;2022-09-19T03:44:27;13.20;;;6.63;;
10920;SDS011;5513;50.580;8.818;2022-09-19T03:46:56;12.93;;;7.07;;
10920;SDS011;5513;50.580;8.818;2022-09-19T03:49:28;15.60;;;7.60;;
10920;SDS011;5513;50.580;8.818;2022-09-19T03:51:57;14.10;;;6.97;;
10920;SDS011;5513;50.580;8.818;2022-09-19T03:54:26;15.67;;;6.80;;
10920;SDS011;5513;50.580;8.818;2022-09-19T03:56:54;12.30;;;6.00;;
10920;SDS011;5513;50.580;8.818;2022-09-19T03:59:23;12.27;;;6.37;;
10920;SDS011;5513;50.580;8.818;2022-09-19T04:01:51;18.40;;;7.40;;
10920;SDS011;5513;50.580;8.818;2022-09-19T04:04:21;11.83;;;7.17;;
10920;SDS011;5513;50.580;8.818;2022-09-19T04:06:53;11.23;;;6.77;;
10920;SDS011;5513;50.580;8.818;2022-09-19T04:09:22;13.17;;;7.13;;
10920;SDS011;5513;50.580;8.818;2022-09-19T04:11:52;19.43;;;7.80;;
10920;SDS011;5513;50.580;8.818;2022-09-19T04:14:21;14.33;;;7.23;;
10920;SDS011;5513;50.580;8.818;2022-09-19T04:16:51;13.70;;;6.97;;
10920;SDS011;5513;50.580;8.818;2022-09-19T04:19:40;15.97;;;7.40;;
10920;SDS011;5513;50.580;8.818;2022-09-19T04:22:11;12.37;;;6.60;;
10920;SDS011;5513;50.580;8.818;2022-09-19T04:24:39;16.07;;;6.80;;
10920;SDS011;5513;50.580;8.818;2022-09-19T04:27:09;12.43;;;6.53;;
10920;SDS011;5513;50.580;8.818;2022-09-19T04:29:45;18.67;;;6.97;;
10920;SDS011;5513;50.580;8.818;2022-09-19T04:32:15;15.63;;;6.77;;
10920;SDS011;5513;50.580;8.818;2022-09-19T04:34:43;14.07;;;6.70;;
10920;SDS011;5513;50.580;8.818;2022-09-19T04:37:15;15.10;;;6.83;;
10920;SDS011;5513;50.580;8.818;2022-09-19T04:39:43;12.27;;;6.97;;
10920;SDS011;5513;50.580;8.818;2022-09-19T04:42:15;13.73;;;6.63;;
10920;SDS011;5513;50.580;8.818;2022-09-19T04:44:43;13.83;;;6.57;;
10920;SDS011;5513;50.580;8.818;2022-09-19T04:47:13;13.83;;;6.50;;
10920;SDS011;5513;50.580;8.818;2022-09-19T04:49:42;13.50;;;7.70;;
10920;SDS011;5513;50.580;8.818;2022-09-19T04:52:15;14.03;;;6.83;;
10920;SDS011;5513;50.580;8.818;2022-09-19T04:54:43;16.30;;;6.77;;
10920;SDS011;5513;50.580;8.818;2022-09-19T04:57:13;15.87;;;7.20;;
10920;SDS011;5513;50.580;8.818;2022-09-19T04:59:42;15.17;;;6.70;;
10920;SDS011;5513;50.580;8.818;2022-09-19T05:02:11;13.23;;;6.60;;
10920;SDS011;5513;50.580;8.818;2022-09-19T05:04:41;16.63;;;6.73;;
10920;SDS011;5513;50.580;8.818;2022-09-19T05:07:11;14.33;;;6.87;;
10920;SDS011;5513;50.580;8.818;2022-09-19T05:09:42;14.97;;;7.07;;
10920;SDS011;5513;50.580;8.818;2022-09-19T05:12:10;13.27;;;6.63;;
10920;SDS011;5513;50.580;8.818;2022-09-19T05:14:39;13.47;;;6.07;;
10920;SDS011;5513;50.580;8.818;2022-09-19T05:17:07;13.47;;;6.57;;
10920;SDS011;5513;50.580;8.818;2022-09-19T05:19:36;14.53;;;6.47;;
10920;SDS011;5513;50.580;8.818;2022-09-19T05:22:06;11.93;;;6.90;;
10920;SDS011;5513;50.580;8.818;2022-09-19T05:24:34;14.17;;;6.67;;
10920;SDS011;5513;50.580;8.818;2022-09-19T05:27:05;10.73;;;6.77;;
10920;SDS011;5513;50.580;8.818;2022-09-19T05:29:33;13.93;;;7.23;;
10920;SDS011;5513;50.580;8.818;2022-09-19T05:32:05;12.30;;;6.63;;
10920;SDS011;5513;50.580;8.818;2022-09-19T05:34:34;14.50;;;7.67;;
10920;SDS011;5513;50.580;8.818;2022-09-19T05:37:02;14.03;;;7.20;;
10920;SDS011;5513;50.580;8.818;2022-09-19T05:39:32;12.70;;;7.40;;
10920;SDS011;5513;50.580;8.818;2022-09-19T05:42:02;12.07;;;6.20;;
10920;SDS011;5513;50.580;8.818;2022-09-19T05:44:37;12.57;;;7.17;;
10920;SDS011;5513;50.580;8.818;2022-09-19T05:47:05;10.50;;;6.73;;
10920;SDS011;5513;50.580;8.818;2022-09-19T05:49:36;11.73;;;7.10;;
10920;SDS011;5513;50.580;8.818;2022-09-19T05:52:05;15.83;;;7.80;;
10920;SDS011;5513;50.580;8.818;2022-09-19T05:54:47;10.43;;;7.23;;
10920;SDS011;5513;50.580;8.818;2022-09-19T05:57:16;16.67;;;7.27;;
10920;SDS011;5513;50.580;8.818;2022-09-19T05:59:46;14.07;;;8.17;;
10920;SDS011;5513;50.580;8.818;2022-09-19T06:02:15;15.83;;;8.13;;
10920;SDS011;5513;50.580;8.818;2022-09-19T06:04:43;15.07;;;7.30;;
10920;SDS011;5513;50.580;8.818;2022-09-19T06:07:12;13.57;;;7.70;;
10920;SDS011;5513;50.580;8.818;2022-09-19T06:09:42;13.87;;;7.27;;
10920;SDS011;5513;50.580;8.818;2022-09-19T06:12:10;12.00;;;8.10;;
10920;SDS011;5513;50.580;8.818;2022-09-19T06:14:39;14.60;;;7.50;;
10920;SDS011;5513;50.580;8.818;2022-09-19T06:17:13;12.20;;;7.87;;
10920;SDS011;5513;50.580;8.818;2022-09-19T06:19:43;16.27;;;8.43;;
10920;SDS011;5513;50.580;8.818;2022-09-19T06:22:11;15.03;;;8.57;;
10920;SDS011;5513;50.580;8.818;2022-09-19T06:24:41;15.17;;;8.50;;
10920;SDS011;5513;50.580;8.818;2022-09-19T06:27:10;16.57;;;8.43;;
10920;SDS011;5513;50.580;8.818;2022-09-19T06:29:40;12.40;;;8.30;;
10920;SDS011;5513;50.580;8.818;2022-09-19T06:32:09;12.03;;;8.37;;
10920;SDS011;5513;50.580;8.818;2022-09-19T06:34:39;12.33;;;8.70;;
10920;SDS011;5513;50.580;8.818;2022-09-19T06:37:23;14.43;;;8.17;;
10920;SDS011;5513;50.580;8.818;2022-09-19T06:39:52;14.60;;;7.80;;
10920;SDS011;5513;50.580;8.818;2022-09-19T06:42:20;13.17;;;8.17;;
10920;SDS011;5513;50.580;8.818;2022-09-19T06:44:54;10.07;;;8.03;;
10920;SDS011;5513;50.580;8.818;2022-09-19T06:47:22;13.47;;;8.20;;
10920;SDS011;5513;50.580;8.818;2022-09-19T06:49:55;19.67;;;7.87;;
10920;SDS011;5513;50.580;8.818;2022-09-19T06:52:27;11.80;;;8.07;;
10920;SDS011;5513;50.580;8.818;2022-09-19T06:54:56;13.60;;;8.03;;
10920;SDS011;5513;50.580;8.818;2022-09-19T06:57:26;10.73;;;7.73;;
10920;SDS011;5513;50.580;8.818;2022-09-19T06:59:55;12.67;;;8.20;;
10920;SDS011;5513;50.580;8.818;2022-09-19T07:02:24;14.17;;;8.17;;
10920;SDS011;5513;50.580;8.818;2022-09-19T07:04:54;15.43;;;8.10;;
10920;SDS011;5513;50.580;8.818;2022-09-19T07:07:23;14.97;;;7.57;;
10920;SDS011;5513;50.580;8.818;2022-09-19T07:09:51;12.37;;;7.97;;
10920;SDS011;5513;50.580;8.818;2022-09-19T07:12:22;12.93;;;7.73;;
10920;SDS011;5513;50.580;8.818;2022-09-19T07:14:52;11.97;;;7.53;;
10920;SDS011;5513;50.580;8.818;2022-09-19T07:17:26;14.00;;;7.20;;
10920;SDS011;5513;50.580;8.818;2022-09-19T07:19:57;12.63;;;7.70;;
10920;SDS011;5513;50.580;8.818;2022-09-19T07:22:27;10.27;;;6.93;;
10920;SDS011;5513;50.580;8.818;2022-09-19T07:24:56;14.03;;;7.50;;
10920;SDS011;5513;50.580;8.818;2022-09-19T07:27:25;13.47;;;7.03;;
10920;SDS011;5513;50.580;8.818;2022-09-19T07:29:53;13.60;;;6.83;;
10920;SDS011;5513;50.580;8.818;2022-09-19T07:32:23;11.40;;;7.07;;
10920;SDS011;5513;50.580;8.818;2022-09-19T07:34:51;13.63;;;6.73;;
10920;SDS011;5513;50.580;8.818;2022-09-19T07:37:21;10.73;;;6.47;;
10920;SDS011;5513;50.580;8.818;2022-09-19T07:39:54;12.77;;;6.90;;
10920;SDS011;5513;50.580;8.818;2022-09-19T07:42:37;11.80;;;6.60;;
10920;SDS011;5513;50.580;8.818;2022-09-19T07:45:06;13.40;;;6.83;;
10920;SDS011;5513;50.580;8.818;2022-09-19T07:47:40;9.70;;;6.40;;
10920;SDS011;5513;50.580;8.818;2022-09-19T07:50:10;9.47;;;6.37;;
10920;SDS011;5513;50.580;8.818;2022-09-19T07:52:44;14.37;;;6.87;;
10920;SDS011;5513;50.580;8.818;2022-09-19T07:55:15;14.23;;;7.00;;
10920;SDS011;5513;50.580;8.818;2022-09-19T07:57:49;11.17;;;6.70;;
10920;SDS011;5513;50.580;8.818;2022-09-19T08:00:19;14.37;;;7.10;;
10920;SDS011;5513;50.580;8.818;2022-09-19T08:02:53;11.43;;;7.30;;
10920;SDS011;5513;50.580;8.818;2022-09-19T08:05:25;12.13;;;7.53;;
10920;SDS011;5513;50.580;8.818;2022-09-19T08:07:57;13.17;;;7.03;;
10920;SDS011;5513;50.580;8.818;2022-09-19T08:10:28;9.37;;;6.50;;
10920;SDS011;5513;50.580;8.818;2022-09-19T08:12:58;11.10;;;6.63;;
10920;SDS011;5513;50.580;8.818;2022-09-19T08:15:27;13.23;;;6.80;;
10920;SDS011;5513;50.580;8.818;2022-09-19T08:17:55;7.97;;;6.30;;
10920;SDS011;5513;50.580;8.818;2022-09-19T08:20:25;9.70;;;6.77;;
10920;SDS011;5513;50.580;8.818;2022-09-19T08:22:59;9.90;;;7.50;;
10920;SDS011;5513;50.580;8.818;2022-09-19T08:25:28;13.43;;;6.57;;
10920;SDS011;5513;50.580;8.818;2022-09-19T08:28:00;7.57;;;5.67;;
10920;SDS011;5513;50.580;8.818;2022-09-19T08:30:30;9.73;;;6.27;;
10920;SDS011;5513;50.580;8.818;2022-09-19T08:33:00;9.60;;;5.90;;
10920;SDS011;5513;50.580;8.818;2022-09-19T08:35:30;8.87;;;6.40;;
10920;SDS011;5513;50.580;8.818;2022-09-19T08:38:06;11.37;;;6.17;;
10920;SDS011;5513;50.580;8.818;2022-09-19T08:40:44;11.40;;;6.30;;
10920;SDS011;5513;50.580;8.818;2022-09-19T08:43:20;8.53;;;5.80;;
10920;SDS011;5513;50.580;8.818;2022-09-19T08:46:00;9.07;;;5.80;;
10920;SDS011;5513;50.580;8.818;2022-09-19T08:48:44;8.83;;;5.07;;
10920;SDS011;5513;50.580;8.818;2022-09-19T08:51:19;8.37;;;5.30;;
10920;SDS011;5513;50.580;8.818;2022-09-19T08:53:56;7.87;;;5.53;;
10920;SDS011;5513;50.580;8.818;2022-09-19T08:56:29;6.97;;;5.13;;
10920;SDS011;5513;50.580;8.818;2022-09-19T08:58:59;7.80;;;5.50;;
10920;SDS011;5513;50.580;8.818;2022-09-19T09:01:33;6.93;;;5.00;;
10920;SDS011;5513;50.580;8.818;2022-09-19T09:04:11;8.13;;;5.00;;
10920;SDS011;5513;50.580;8.818;2022-09-19T09:06:52;5.57;;;4.87;;
10920;SDS011;5513;50.580;8.818;2022-09-19T09:09:33;7.57;;;4.33;;
10920;SDS011;5513;50.580;8.818;2022-09-19T09:12:16;6.43;;;4.83;;
10920;SDS011;5513;50.580;8.818;2022-09-19T09:15:01;7.87;;;4.50;;
10920;SDS011;5513;50.580;8.818;2022-09-19T09:17:58;6.17;;;4.40;;
10920;SDS011;5513;50.580;8.818;2022-09-19T09:20:48;7.03;;;4.57;;
10920;SDS011;5513;50.580;8.818;2022-09-19T09:23:23;8.47;;;4.10;;
10920;SDS011;5513;50.580;8.818;2022-09-19T09:25:58;6.60;;;3.57;;
10920;SDS011;5513;50.580;8.818;2022-09-19T09:28:31;6.33;;;3.90;;
10920;SDS011;5513;50.580;8.818;2022-09-19T09:31:11;4.07;;;3.67;;
10920;SDS011;5513;50.580;8.818;2022-09-19T09:33:48;5.40;;;3.30;;
10920;SDS011;5513;50.580;8.818;2022-09-19T09:36:25;6.13;;;3.00;;
10920;SDS011;5513;50.580;8.818;2022-09-19T09:39:02;4.47;;;2.87;;
10920;SDS011;5513;50.580;8.818;2022-09-19T09:41:41;6.83;;;3.27;;
10920;SDS011;5513;50.580;8.818;2022-09-19T09:44:24;6.50;;;2.90;;
10920;SDS011;5513;50.580;8.818;2022-09-19T09:47:21;3.60;;;3.13;;
10920;SDS011;5513;50.580;8.818;2022-09-19T09:49:58;4.90;;;3.00;;
10920;SDS011;5513;50.580;8.818;2022-09-19T09:52:54;4.43;;;3.20;;
10920;SDS011;5513;50.580;8.818;2022-09-19T09:55:34;4.33;;;3.43;;
10920;SDS011;5513;50.580;8.818;2022-09-19T09:58:31;5.83;;;3.50;;
10920;SDS011;5513;50.580;8.818;2022-09-19T10:01:29;3.87;;;3.03;;
10920;SDS011;5513;50.580;8.818;2022-09-19T10:04:21;6.27;;;3.20;;
10920;SDS011;5513;50.580;8.818;2022-09-19T10:07:00;7.03;;;3.20;;
10920;SDS011;5513;50.580;8.818;2022-09-19T10:09:51;6.37;;;3.50;;
10920;SDS011;5513;50.580;8.818;2022-09-19T10:12:24;5.80;;;3.03;;
10920;SDS011;5513;50.580;8.818;2022-09-19T10:15:18;6.80;;;3.40;;
10920;SDS011;5513;50.580;8.818;2022-09-19T10:17:51;5.47;;;3.27;;
10920;SDS011;5513;50.580;8.818;2022-09-19T10:20:35;7.03;;;3.73;;
10920;SDS011;5513;50.580;8.818;2022-09-19T10:23:10;6.73;;;3.57;;
10920;SDS011;5513;50.580;8.818;2022-09-19T10:25:43;7.37;;;3.63;;
10920;SDS011;5513;50.580;8.818;2022-09-19T10:28:15;6.93;;;3.10;;
10920;SDS011;5513;50.580;8.818;2022-09-19T10:30:56;6.20;;;3.00;;
10920;SDS011;5513;50.580;8.818;2022-09-19T10:33:27;6.57;;;3.00;;
10920;SDS011;5513;50.580;8.818;2022-09-19T10:36:05;6.53;;;3.33;;
10920;SDS011;5513;50.580;8.818;2022-09-19T10:38:46;4.17;;;2.30;;
10920;SDS011;5513;50.580;8.818;2022-09-19T10:41:17;3.40;;;2.10;;
10920;SDS011;5513;50.580;8.818;2022-09-19T10:43:49;5.70;;;2.73;;
10920;SDS011;5513;50.580;8.818;2022-09-19T10:46:21;5.70;;;2.50;;
10920;SDS011;5513;50.580;8.818;2022-09-19T10:49:04;5.00;;;2.60;;
10920;SDS011;5513;50.580;8.818;2022-09-19T10:51:45;5.43;;;2.70;;
10920;SDS011;5513;50.580;8.818;2022-09-19T10:54:21;7.50;;;3.33;;
10920;SDS011;5513;50.580;8.818;2022-09-19T10:56:59;7.67;;;3.20;;
10920;SDS011;5513;50.580;8.818;2022-09-19T10:59:28;6.57;;;3.10;;
10920;SDS011;5513;50.580;8.818;2022-09-19T11:02:08;6.03;;;3.13;;
10920;SDS011;5513;50.580;8.818;2022-09-19T11:04:54;9.73;;;3.33;;
10920;SDS011;5513;50.580;8.818;2022-09-19T11:07:28;7.43;;;2.97;;
10920;SDS011;5513;50.580;8.818;2022-09-19T11:10:00;7.10;;;3.30;;
10920;SDS011;5513;50.580;8.818;2022-09-19T11:12:36;6.77;;;3.20;;
10920;SDS011;5513;50.580;8.818;2022-09-19T11:15:08;6.90;;;2.53;;
10920;SDS011;5513;50.580;8.818;2022-09-19T11:17:55;5.93;;;2.40;;
10920;SDS011;5513;50.580;8.818;2022-09-19T11:20:34;7.33;;;2.57;;
10920;SDS011;5513;50.580;8.818;2022-09-19T11:23:20;6.80;;;2.60;;
10920;SDS011;5513;50.580;8.818;2022-09-19T11:26:09;5.93;;;2.90;;
10920;SDS011;5513;50.580;8.818;2022-09-19T11:28:48;5.30;;;2.50;;
10920;SDS011;5513;50.580;8.818;2022-09-19T11:31:33;6.33;;;2.40;;
10920;SDS011;5513;50.580;8.818;2022-09-19T11:34:33;4.90;;;2.50;;
10920;SDS011;5513;50.580;8.818;2022-09-19T11:37:33;4.93;;;2.20;;
10920;SDS011;5513;50.580;8.818;2022-09-19T11:40:20;7.90;;;2.77;;
10920;SDS011;5513;50.580;8.818;2022-09-19T11:43:06;5.47;;;2.07;;
10920;SDS011;5513;50.580;8.818;2022-09-19T11:45:44;7.60;;;2.07;;
10920;SDS011;5513;50.580;8.818;2022-09-19T11:48:27;7.20;;;2.10;;
10920;SDS011;5513;50.580;8.818;2022-09-19T11:51:14;5.37;;;1.97;;
10920;SDS011;5513;50.580;8.818;2022-09-19T11:53:52;5.87;;;2.23;;
10920;SDS011;5513;50.580;8.818;2022-09-19T11:59:36;7.13;;;1.97;;
10920;SDS011;5513;50.580;8.818;2022-09-19T12:02:19;4.27;;;1.90;;
10920;SDS011;5513;50.580;8.818;2022-09-19T12:05:19;4.47;;;1.70;;
10920;SDS011;5513;50.580;8.818;2022-09-19T12:08:01;3.93;;;1.83;;
10920;SDS011;5513;50.580;8.818;2022-09-19T12:10:45;6.23;;;1.97;;
10920;SDS011;5513;50.580;8.818;2022-09-19T12:13:19;5.90;;;1.60;;
10920;SDS011;5513;50.580;8.818;2022-09-19T12:15:53;7.07;;;1.60;;
10920;SDS011;5513;50.580;8.818;2022-09-19T12:18:26;5.60;;;2.27;;
10920;SDS011;5513;50.580;8.818;2022-09-19T12:21:03;8.30;;;2.10;;
10920;SDS011;5513;50.580;8.818;2022-09-19T12:23:39;4.27;;;1.60;;
10920;SDS011;5513;50.580;8.818;2022-09-19T12:26:31;7.40;;;2.00;;
10920;SDS011;5513;50.580;8.818;2022-09-19T12:29:04;6.43;;;1.50;;
10920;SDS011;5513;50.580;8.818;2022-09-19T12:31:39;5.30;;;1.57;;
10920;SDS011;5513;50.580;8.818;2022-09-19T12:34:14;4.60;;;1.63;;
10920;SDS011;5513;50.580;8.818;2022-09-19T12:36:57;7.43;;;1.90;;
10920;SDS011;5513;50.580;8.818;2022-09-19T12:39:33;5.07;;;1.47;;
10920;SDS011;5513;50.580;8.818;2022-09-19T12:42:07;6.43;;;1.80;;
10920;SDS011;5513;50.580;8.818;2022-09-19T12:44:43;4.07;;;1.27;;
10920;SDS011;5513;50.580;8.818;2022-09-19T12:47:26;6.97;;;1.43;;
10920;SDS011;5513;50.580;8.818;2022-09-19T12:50:27;5.97;;;1.70;;
10920;SDS011;5513;50.580;8.818;2022-09-19T12:53:03;3.20;;;1.50;;
10920;SDS011;5513;50.580;8.818;2022-09-19T12:55:52;4.93;;;1.40;;
10920;SDS011;5513;50.580;8.818;2022-09-19T12:58:24;9.63;;;1.60;;
10920;SDS011;5513;50.580;8.818;2022-09-19T13:01:00;10.10;;;1.73;;
10920;SDS011;5513;50.580;8.818;2022-09-19T13:03:40;5.20;;;1.40;;
10920;SDS011;5513;50.580;8.818;2022-09-19T13:06:13;8.27;;;1.70;;
10920;SDS011;5513;50.580;8.818;2022-09-19T13:08:47;7.07;;;1.40;;
10920;SDS011;5513;50.580;8.818;2022-09-19T13:11:26;8.57;;;1.60;;
10920;SDS011;5513;50.580;8.818;2022-09-19T13:14:01;4.53;;;1.30;;
10920;SDS011;5513;50.580;8.818;2022-09-19T13:16:39;3.30;;;1.10;;
10920;SDS011;5513;50.580;8.818;2022-09-19T13:19:25;5.40;;;1.50;;
10920;SDS011;5513;50.580;8.818;2022-09-19T13:22:19;5.90;;;1.47;;
10920;SDS011;5513;50.580;8.818;2022-09-19T13:25:08;5.30;;;1.83;;
10920;SDS011;5513;50.580;8.818;2022-09-19T13:27:44;4.77;;;1.70;;
10920;SDS011;5513;50.580;8.818;2022-09-19T13:33:33;6.00;;;1.70;;
10920;SDS011;5513;50.580;8.818;2022-09-19T13:36:07;5.87;;;1.57;;
10920;SDS011;5513;50.580;8.818;2022-09-19T13:38:38;5.80;;;1.83;;
10920;SDS011;5513;50.580;8.818;2022-09-19T13:41:09;4.17;;;1.77;;
10920;SDS011;5513;50.580;8.818;2022-09-19T13:43:59;6.43;;;1.73;;
10920;SDS011;5513;50.580;8.818;2022-09-19T13:46:37;6.90;;;2.10;;
10920;SDS011;5513;50.580;8.818;2022-09-19T13:49:12;3.90;;;1.80;;
10920;SDS011;5513;50.580;8.818;2022-09-19T13:51:51;6.07;;;2.03;;
10920;SDS011;5513;50.580;8.818;2022-09-19T13:54:30;6.50;;;1.90;;
10920;SDS011;5513;50.580;8.818;2022-09-19T13:57:12;3.80;;;2.10;;
10920;SDS011;5513;50.580;8.818;2022-09-19T13:59:49;6.17;;;2.20;;
10920;SDS011;5513;50.580;8.818;2022-09-19T14:02:25;6.97;;;2.00;;
10920;SDS011;5513;50.580;8.818;2022-09-19T14:05:02;8.03;;;3.00;;
10920;SDS011;5513;50.580;8.818;2022-09-19T14:10:45;3.97;;;2.00;;
10920;SDS011;5513;50.580;8.818;2022-09-19T14:16:26;5.30;;;2.13;;
10920;SDS011;5513;50.580;8.818;2022-09-19T14:18:59;6.67;;;2.50;;
10920;SDS011;5513;50.580;8.818;2022-09-19T14:24:26;3.17;;;1.83;;
10920;SDS011;5513;50.580;8.818;2022-09-19T14:27:33;6.60;;;1.73;;
10920;SDS011;5513;50.580;8.818;2022-09-19T14:30:15;3.50;;;1.70;;
10920;SDS011;5513;50.580;8.818;2022-09-19T14:32:59;4.03;;;1.87;;
10920;SDS011;5513;50.580;8.818;2022-09-19T14:35:41;4.17;;;1.70;;
10920;SDS011;5513;50.580;8.818;2022-09-19T14:38:23;5.10;;;2.07;;
10920;SDS011;5513;50.580;8.818;2022-09-19T14:41:07;5.13;;;1.57;;
10920;SDS011;5513;50.580;8.818;2022-09-19T14:43:53;4.60;;;1.37;;
10920;SDS011;5513;50.580;8.818;2022-09-19T14:47:00;5.00;;;1.50;;
10920;SDS011;5513;50.580;8.818;2022-09-19T14:49:38;4.27;;;1.40;;
10920;SDS011;5513;50.580;8.818;2022-09-19T14:52:15;3.83;;;1.40;;
10920;SDS011;5513;50.580;8.818;2022-09-19T14:54:49;4.13;;;1.40;;
10920;SDS011;5513;50.580;8.818;2022-09-19T14:57:21;4.17;;;1.20;;
10920;SDS011;5513;50.580;8.818;2022-09-19T14:59:52;4.37;;;0.90;;
10920;SDS011;5513;50.580;8.818;2022-09-19T15:02:22;4.07;;;1.13;;
10920;SDS011;5513;50.580;8.818;2022-09-19T15:04:57;3.47;;;1.00;;
10920;SDS011;5513;50.580;8.818;2022-09-19T15:07:27;2.73;;;1.10;;
10920;SDS011;5513;50.580;8.818;2022-09-19T15:09:57;3.93;;;1.13;;
10920;SDS011;5513;50.580;8.818;2022-09-19T15:12:28;1.63;;;0.80;;
10920;SDS011;5513;50.580;8.818;2022-09-19T15:14:58;2.80;;;0.87;;
10920;SDS011;5513;50.580;8.818;2022-09-19T15:17:28;4.20;;;1.00;;
10920;SDS011;5513;50.580;8.818;2022-09-19T15:20:09;4.67;;;0.90;;
10920;SDS011;5513;50.580;8.818;2022-09-19T15:22:44;4.70;;;1.00;;
10920;SDS011;5513;50.580;8.818;2022-09-19T15:25:20;2.27;;;0.90;;
10920;SDS011;5513;50.580;8.818;2022-09-19T15:27:58;1.00;;;0.80;;
10920;SDS011;5513;50.580;8.818;2022-09-19T15:30:31;4.03;;;0.83;;
10920;SDS011;5513;50.580;8.818;2022-09-19T15:33:02;4.33;;;1.03;;
10920;SDS011;5513;50.580;8.818;2022-09-19T15:35:34;4.23;;;1.00;;
10920;SDS011;5513;50.580;8.818;2022-09-19T15:38:11;3.87;;;0.70;;
10920;SDS011;5513;50.580;8.818;2022-09-19T15:40:42;3.70;;;0.80;;
10920;SDS011;5513;50.580;8.818;2022-09-19T15:43:11;1.60;;;0.80;;
10920;SDS011;5513;50.580;8.818;2022-09-19T15:45:42;1.60;;;0.90;;
10920;SDS011;5513;50.580;8.818;2022-09-19T15:48:14;2.03;;;0.67;;
10920;SDS011;5513;50.580;8.818;2022-09-19T15:50:48;2.87;;;0.70;;
10920;SDS011;5513;50.580;8.818;2022-09-19T15:53:22;1.67;;;0.60;;
10920;SDS011;5513;50.580;8.818;2022-09-19T15:56:00;1.43;;;0.60;;
10920;SDS011;5513;50.580;8.818;2022-09-19T15:58:34;2.20;;;0.80;;
10920;SDS011;5513;50.580;8.818;2022-09-19T16:01:09;0.87;;;0.57;;
10920;SDS011;5513;50.580;8.818;2022-09-19T16:03:45;2.10;;;0.70;;